Mayo Airport
CYMA : now visible

Airfield :











YOU CAN JOIN US ON...

 
LOGIN :

Register | Disclaimer

   EN    FR    IT 

 









Legend :    VFR   Marginal VFR   IFR   Intensive IFR   Very Intensive IFR
Visi :
Ceiling :
>= 8 km
>= 3000ft
5 to 8 km
1000 to 3000 ft
1500m to 5 km
500 to 1000 ft
800 to 1500m
200 to 500 ft
< 800m
< 200 ft
Symbols :   Thunderstorms  Fog  Heavy snow  Heavy precipitations  Wind > 20 kt






- Airport Elevation : 1653 ft
- IATA code : YMA


CYMA - Mayo

CURRENT METAR :
  • 280100Z 24002KT 20SM FEW050 FEW090 M27/M29 A2954 RMK SC1AC1 SC TR AC TR SLP071

EXPIRED METARs :
  • 280000Z 22003KT 170V240 20SM FEW050 FEW090 SCT220 M25/M28 A2954 RMK SC1AC2CI2 SC TR CLIMAT -22.5/-24.7/0.8 CM/0.4 MWE SOG 94 SLP069
  • 272300Z 23002KT 20SM FEW080 SCT220 M23/M27 A2954 RMK AC1CI3 SLP068

TAF TAF CYMA
Valid from the 28 at 00:00 until the 28 at 12:00 UTC


272339Z 2800/2812 VRB03KT P6SM FEW080 BKN220
FM280800 02005KT P6SM BKN060
TEMPO 2808/2812 P6SM -SN RMK NXT FCST BY 280600Z



MET'MAP, your aeronautical weather chart ! - Copyright ORBIFLY December 2007 - Disclaimer

ORBIFLY MET'MAP TEAM :

Programming & Development : Alexandra Zaïnal
Concept & original design : Baudouin d'Aumeries
Assistance for programming : Marc-Olivier Méhu
Technical & hardware support : Manuel Goepfert

Contact : metmap@orbifly.com




SOURCES & CREDITS :

   NOAA       Earth
Advisory